createdAt,value
2018-09-01T00:01:23.301Z,97639.19
2018-09-01T00:02:58.557Z,97550.65
2018-09-01T00:04:37.941Z,97486.34
2018-09-01T00:06:17.689Z,97454.09
2018-09-01T00:07:59.507Z,97422.17
2018-09-01T00:09:36.712Z,97379.33
2018-09-01T00:11:12.373Z,97368.03
2018-09-01T00:12:47.979Z,97321.17
2018-09-01T00:14:23.311Z,97289.16
2018-09-01T00:15:58.816Z,97291.36
2018-09-01T00:17:35.363Z,97277.02
2018-09-01T00:19:12.572Z,97276.16
2018-09-01T00:20:49.622Z,97280.03
2018-09-01T00:22:25.489Z,97249.88
2018-09-01T00:24:05.799Z,97246.84
2018-09-01T00:25:41.686Z,97319.34
2018-09-01T00:27:17.324Z,97376.78
2018-09-01T00:28:53.258Z,97419.16
2018-09-01T00:30:29.016Z,97413.80
2018-09-01T00:32:09.214Z,97379.69
2018-09-01T00:33:45.774Z,97354.38
2018-09-01T00:35:21.670Z,97330.77
2018-09-01T00:36:59.664Z,97309.00
2018-09-01T00:38:40.616Z,97356.21
2018-09-01T00:40:16.705Z,97295.02
2018-09-01T00:41:53.259Z,97314.72
2018-09-01T00:43:28.523Z,97337.48
2018-09-01T00:45:07.309Z,97371.70
2018-09-01T00:46:44.257Z,97440.23
2018-09-01T00:48:20.283Z,97481.88
2018-09-01T00:49:55.601Z,97482.72
2018-09-01T00:51:31.753Z,97495.73
2018-09-01T00:53:08.836Z,97434.98
2018-09-01T00:54:44.941Z,97386.05
2018-09-01T00:56:21.332Z,97360.73
2018-09-01T00:57:57.653Z,97279.47
2018-09-01T00:59:33.640Z,97271.05
2018-09-01T01:01:09.673Z,97288.44
2018-09-01T01:02:47.750Z,97273.25
2018-09-01T01:04:23.067Z,97265.33
2018-09-01T01:05:59.884Z,97315.22
2018-09-01T01:07:35.719Z,97302.09
2018-09-01T01:09:12.306Z,97294.66
2018-09-01T01:10:47.545Z,97311.68
2018-09-01T01:12:23.089Z,97329.72
2018-09-01T01:13:58.997Z,97320.94
2018-09-01T01:15:34.645Z,97268.99
2018-09-01T01:17:12.125Z,97288.23
2018-09-01T01:18:49.891Z,97268.50
2018-09-01T01:20:25.671Z,97264.15
2018-09-01T01:22:01.935Z,97299.53
2018-09-01T01:23:40.536Z,97338.63
2018-09-01T01:25:16.617Z,97349.55
2018-09-01T01:26:55.517Z,97376.22
2018-09-01T01:28:30.794Z,97388.36
2018-09-01T01:30:09.119Z,97388.86
2018-09-01T01:31:48.802Z,97431.38
2018-09-01T01:33:24.487Z,97450.61
2018-09-01T01:35:03.244Z,97419.06
2018-09-01T01:36:39.384Z,97358.70
2018-09-01T01:38:15.193Z,97302.34
2018-09-01T01:39:50.596Z,97262.45
2018-09-01T01:41:26.486Z,97217.55
2018-09-01T01:43:01.984Z,97205.25
2018-09-01T01:44:37.674Z,97268.99
2018-09-01T01:47:42.395Z,97196.64
2018-09-01T01:49:17.747Z,97247.23
2018-09-01T01:50:53.166Z,97207.24
2018-09-01T01:52:28.479Z,97201.88
2018-09-01T01:54:03.545Z,97190.55
2018-09-01T01:55:39.359Z,97195.43
2018-09-01T01:57:15.014Z,97208.95
2018-09-01T01:58:50.220Z,97245.66
2018-09-01T02:00:27.534Z,97269.28
2018-09-01T02:02:02.995Z,97270.14
2018-09-01T02:03:39.651Z,97258.29
2018-09-01T02:05:21.368Z,97279.72
2018-09-01T02:06:58.395Z,97258.29
2018-09-01T02:08:33.592Z,97200.67
2018-09-01T02:10:08.786Z,97154.97
2018-09-01T02:11:44.503Z,97190.36
2018-09-01T02:13:19.672Z,97182.31
2018-09-01T02:14:54.838Z,97154.97
2018-09-01T02:16:30.937Z,97154.84
2018-09-01T02:18:06.612Z,97098.59
2018-09-01T02:19:41.840Z,97059.33
2018-09-01T02:21:16.983Z,97102.61
2018-09-01T02:22:52.128Z,97117.42
2018-09-01T02:24:28.836Z,97175.87
2018-09-01T02:26:04.092Z,97155.45
2018-09-01T02:27:39.167Z,97179.89
2018-09-01T02:29:14.515Z,97164.94
2018-09-01T02:30:49.837Z,97126.68
2018-09-01T02:32:25.642Z,97082.58
2018-09-01T02:34:00.836Z,97014.55
2018-09-01T02:35:36.030Z,96967.93
2018-09-01T02:37:12.300Z,96939.87
2018-09-01T02:38:47.499Z,96910.24
2018-09-01T02:40:22.755Z,96897.64
2018-09-01T02:41:58.232Z,96883.63
2018-09-01T02:43:34.333Z,96843.60
2018-09-01T02:45:10.420Z,96823.59
2018-09-01T02:46:46.719Z,96769.29
2018-09-01T02:48:22.376Z,96775.69
2018-09-01T02:49:57.532Z,96824.08
2018-09-01T02:51:33.208Z,96863.42
2018-09-01T02:53:08.336Z,96850.66
2018-09-01T02:54:43.937Z,96872.98
2018-09-01T02:56:19.089Z,96869.81
2018-09-01T02:57:54.212Z,96864.77
2018-09-01T02:59:29.539Z,96863.75
2018-09-01T03:01:10.203Z,96913.41
2018-09-01T03:02:46.199Z,96951.56
2018-09-01T03:04:21.419Z,96943.17
2018-09-01T03:05:59.118Z,96955.94
2018-09-01T03:07:35.390Z,97040.08
2018-09-01T03:09:11.355Z,97010.80
2018-09-01T03:10:46.598Z,96987.86
2018-09-01T03:12:21.754Z,96967.70
2018-09-01T03:13:57.281Z,97015.30
2018-09-01T03:15:33.363Z,97032.17
2018-09-01T03:17:08.655Z,97057.56
2018-09-01T03:18:44.216Z,97078.09
2018-09-01T03:20:20.619Z,97059.27
2018-09-01T03:21:55.790Z,97074.07
2018-09-01T03:23:30.975Z,97081.63
2018-09-01T03:25:06.666Z,97059.75
2018-09-01T03:26:42.106Z,97069.00
2018-09-01T03:28:17.327Z,97004.88
2018-09-01T03:29:52.480Z,96970.88
2018-09-01T03:31:28.405Z,97001.84
2018-09-01T03:33:03.990Z,97023.22
2018-09-01T03:34:39.120Z,97058.55
2018-09-01T03:36:14.365Z,97046.78
2018-09-01T03:37:49.542Z,97029.30
2018-09-01T03:39:24.674Z,97008.73
2018-09-01T03:41:00.363Z,96999.78
2018-09-01T03:42:35.505Z,96975.73
2018-09-01T03:44:11.708Z,96970.02
2018-09-01T03:45:47.103Z,96978.05
2018-09-01T03:47:23.441Z,96928.28
2018-09-01T03:49:00.735Z,96898.66
2018-09-01T03:50:35.879Z,96899.50
2018-09-01T03:52:11.017Z,96891.24
2018-09-01T03:53:47.421Z,96873.05
2018-09-01T03:55:23.468Z,96887.84
2018-09-01T03:56:59.698Z,96906.69
2018-09-01T03:58:34.851Z,96887.84
2018-09-01T04:01:45.847Z,96892.22
2018-09-01T04:03:21.064Z,96891.37
2018-09-01T04:04:56.427Z,96890.52
2018-09-01T04:06:32.013Z,96912.73
2018-09-01T04:08:07.223Z,96901.47
2018-09-01T04:09:44.307Z,96947.25
2018-09-01T04:11:19.830Z,96962.54
2018-09-01T04:12:55.699Z,96919.78
2018-09-01T04:14:30.984Z,96844.78
2018-09-01T04:16:07.550Z,96763.07
2018-09-01T04:17:42.718Z,96772.66
2018-09-01T04:19:20.217Z,96729.83
2018-09-01T04:20:55.497Z,96641.16
2018-09-01T04:22:30.709Z,96525.00
2018-09-01T04:24:07.208Z,96562.05
2018-09-01T04:25:43.043Z,96541.09
2018-09-01T04:27:18.269Z,96498.09
2018-09-01T04:28:53.546Z,96398.12
2018-09-01T04:30:30.815Z,96343.69
2018-09-01T04:32:07.556Z,96354.38
2018-09-01T04:33:43.111Z,96394.63
2018-09-01T04:35:18.360Z,96479.46
2018-09-01T04:36:53.729Z,96591.12
2018-09-01T04:38:28.913Z,96675.36
2018-09-01T04:40:05.455Z,96757.52
2018-09-01T04:41:41.399Z,96738.20
2018-09-01T04:43:16.776Z,96739.55
2018-09-01T04:44:52.923Z,96660.42
2018-09-01T04:46:28.904Z,96664.93
2018-09-01T04:48:05.137Z,96706.96
2018-09-01T04:49:45.277Z,96723.20
2018-09-01T04:51:39.293Z,96718.38
2018-09-01T04:53:20.985Z,96753.28
2018-09-01T04:54:56.311Z,96783.73
2018-09-01T04:56:31.940Z,96848.25
2018-09-01T04:58:08.313Z,96889.97
2018-09-01T04:59:43.855Z,96909.27
2018-09-01T05:01:19.326Z,96957.61
2018-09-01T05:02:55.184Z,96992.11
2018-09-01T05:04:31.168Z,97003.87
2018-09-01T05:06:06.852Z,96982.14
2018-09-01T05:07:43.261Z,97020.53
2018-09-01T05:09:18.562Z,97051.97
2018-09-01T05:10:54.108Z,97110.05
2018-09-01T05:12:29.742Z,97160.09
2018-09-01T05:14:05.319Z,97209.94
2018-09-01T05:15:41.001Z,97262.36
2018-09-01T05:17:16.209Z,97298.25
2018-09-01T05:18:52.398Z,97347.45
2018-09-01T05:20:27.938Z,97337.70
2018-09-01T05:22:03.184Z,97307.97
2018-09-01T05:23:38.361Z,97325.87
2018-09-01T05:25:14.573Z,97393.69
2018-09-01T05:26:50.407Z,97483.78
2018-09-01T05:28:25.697Z,97499.60
2018-09-01T05:30:01.395Z,97549.91
2018-09-01T05:31:38.941Z,97700.05
2018-09-01T05:33:15.711Z,97682.50
2018-09-01T05:34:52.361Z,97748.41
2018-09-01T05:36:28.491Z,97785.23
2018-09-01T05:38:05.575Z,97751.09
2018-09-01T05:39:42.714Z,97576.36
2018-09-01T05:41:18.227Z,97626.56
2018-09-01T05:42:53.791Z,97644.59
2018-09-01T05:44:31.121Z,97709.97
2018-09-01T05:46:08.877Z,97661.81
2018-09-01T05:47:44.440Z,97874.45
2018-09-01T05:49:19.695Z,97943.67
2018-09-01T05:50:54.859Z,97702.16
2018-09-01T05:52:30.435Z,97639.02
2018-09-01T05:54:05.678Z,97686.80
2018-09-01T05:55:40.831Z,97692.67
2018-09-01T05:57:16.892Z,97920.23
2018-09-01T05:58:55.053Z,98016.59
2018-09-01T06:00:36.777Z,98059.22
2018-09-01T06:02:12.351Z,98187.95
2018-09-01T06:03:47.633Z,98032.09
2018-09-01T06:05:23.259Z,97893.86
2018-09-01T06:06:58.961Z,97793.91
2018-09-01T06:08:34.203Z,97882.86
2018-09-01T06:10:09.460Z,97989.96
2018-09-01T06:11:44.600Z,98004.84
2018-09-01T06:13:20.219Z,97873.72
2018-09-01T06:14:55.976Z,97850.91
2018-09-01T06:16:31.240Z,97818.06
2018-09-01T06:18:06.535Z,98055.43
2018-09-01T06:19:42.093Z,98305.05
2018-09-01T06:21:17.548Z,98516.28
2018-09-01T06:22:52.665Z,98585.13
2018-09-01T06:24:27.796Z,98530.84
2018-09-01T06:26:03.386Z,98386.08
2018-09-01T06:27:45.566Z,98287.67
2018-09-01T06:29:27.460Z,98405.91
2018-09-01T06:31:09.432Z,98551.81
2018-09-01T06:32:45.333Z,98806.16
2018-09-01T06:34:21.657Z,98998.83
2018-09-01T06:35:57.527Z,98995.15
2018-09-01T06:37:32.713Z,98983.70
2018-09-01T06:39:09.177Z,99142.03
2018-09-01T06:40:46.094Z,99090.24
2018-09-01T06:42:23.590Z,99118.18
2018-09-01T06:43:59.961Z,99020.33
2018-09-01T06:45:36.220Z,99018.23
2018-09-01T06:47:12.255Z,99002.39
2018-09-01T06:48:49.576Z,99001.03
2018-09-01T06:50:25.031Z,98951.88
2018-09-01T06:52:06.010Z,98791.80
2018-09-01T06:53:42.135Z,98911.99
2018-09-01T06:55:19.551Z,99161.08
2018-09-01T06:56:56.940Z,99275.96
2018-09-01T06:58:33.452Z,99418.88
2018-09-01T07:00:10.084Z,99467.67
2018-09-01T07:01:45.643Z,99517.45
2018-09-01T07:03:22.740Z,99610.02
2018-09-01T07:04:59.676Z,99623.69
2018-09-01T07:06:35.418Z,99546.53
2018-09-01T07:08:14.959Z,99493.45
2018-09-01T07:09:52.785Z,99541.36
2018-09-01T07:11:29.320Z,99285.81
2018-09-01T07:13:05.301Z,99162.92
2018-09-01T07:14:41.585Z,99131.09
2018-09-01T07:16:21.373Z,99166.97
2018-09-01T07:17:59.481Z,99375.30
2018-09-01T07:19:39.665Z,99484.56
2018-09-01T07:21:17.590Z,99530.37
2018-09-01T07:23:03.620Z,99592.77
2018-09-01T07:24:41.004Z,99594.98
2018-09-01T07:26:19.014Z,99527.31
2018-09-01T07:27:56.832Z,99465.22
2018-09-01T07:29:33.480Z,99447.48
2018-09-01T07:31:11.636Z,99536.55
2018-09-01T07:32:48.926Z,99609.25
2018-09-01T07:34:25.076Z,99688.66
2018-09-01T07:36:01.014Z,99691.37
2018-09-01T07:37:37.444Z,99699.77
2018-09-01T07:39:12.745Z,99549.87
2018-09-01T07:40:50.283Z,99429.22
2018-09-01T07:42:26.343Z,99339.46
2018-09-01T07:44:02.442Z,99121.26
2018-09-01T07:45:41.063Z,99044.02
2018-09-01T07:47:19.667Z,98976.45
2018-09-01T07:49:00.933Z,98742.48
2018-09-01T07:50:40.748Z,98772.88
2018-09-01T07:52:19.193Z,98873.17
2018-09-01T07:54:01.228Z,99040.11
2018-09-01T07:55:40.315Z,99007.30
2018-09-01T07:57:16.509Z,99072.78
2018-09-01T07:58:53.044Z,99021.05
2018-09-01T08:00:31.121Z,98818.31
2018-09-01T08:02:06.611Z,98672.30
2018-09-01T08:03:42.289Z,98732.28
2018-09-01T08:05:17.687Z,98795.84
2018-09-01T08:06:52.928Z,98981.63
2018-09-01T08:08:30.427Z,99037.75
2018-09-01T08:10:06.732Z,99074.50
2018-09-01T08:11:42.546Z,99097.38
2018-09-01T08:13:19.589Z,98883.63
2018-09-01T08:14:56.036Z,98745.52
2018-09-01T08:16:31.972Z,98676.72
2018-09-01T08:18:07.290Z,98864.20
2018-09-01T08:19:43.479Z,98917.02
2018-09-01T08:21:20.797Z,99026.71
2018-09-01T08:22:57.599Z,98953.75
2018-09-01T08:24:32.773Z,98921.45
2018-09-01T08:26:08.366Z,98929.92
2018-09-01T08:27:43.501Z,98992.18
2018-09-01T08:29:20.338Z,98922.80
2018-09-01T08:30:56.144Z,98952.74
2018-09-01T08:32:31.877Z,98979.77
2018-09-01T08:34:11.503Z,99127.04
2018-09-01T08:35:50.902Z,99244.13
2018-09-01T08:37:27.865Z,99119.42
2018-09-01T08:39:08.227Z,99144.25
2018-09-01T08:40:44.333Z,99020.33
2018-09-01T08:42:20.446Z,98834.02
2018-09-01T08:43:57.126Z,98681.39
2018-09-01T08:45:36.376Z,98722.84
2018-09-01T08:47:11.553Z,98691.17
2018-09-01T08:48:49.674Z,98794.27
2018-09-01T08:50:26.391Z,98954.58
2018-09-01T08:52:02.270Z,98974.88
2018-09-01T08:53:38.020Z,98932.48
2018-09-01T08:55:15.443Z,98726.40
2018-09-01T08:56:53.535Z,98801.77
2018-09-01T08:58:29.836Z,98759.53
2018-09-01T09:00:08.197Z,98798.81
2018-09-01T09:01:46.564Z,98810.59
2018-09-01T09:03:21.800Z,98932.86
2018-09-01T09:04:59.871Z,98792.06
2018-09-01T09:06:35.088Z,98534.67
2018-09-01T09:08:11.420Z,98659.81
2018-09-01T09:09:51.307Z,98773.02
2018-09-01T09:11:29.240Z,98630.11
2018-09-01T09:13:06.272Z,98527.18
2018-09-01T09:14:42.851Z,98647.30
2018-09-01T09:16:19.677Z,98624.38
2018-09-01T09:17:57.921Z,98653.90
2018-09-01T09:19:34.372Z,98681.73
2018-09-01T09:21:10.631Z,98634.42
2018-09-01T09:22:46.663Z,98601.58
2018-09-01T09:24:24.522Z,98685.92
2018-09-01T09:26:00.639Z,98796.37
2018-09-01T09:27:36.703Z,98833.41
2018-09-01T09:29:13.152Z,98824.95
2018-09-01T09:30:48.668Z,98666.55
2018-09-01T09:32:25.067Z,98657.45
2018-09-01T09:34:01.954Z,98765.41
2018-09-01T09:35:39.135Z,98771.22
2018-09-01T09:37:17.188Z,98766.77
2018-09-01T09:38:53.155Z,98722.58
2018-09-01T09:40:29.743Z,98745.52
2018-09-01T09:42:11.252Z,98703.58
2018-09-01T09:43:47.733Z,98662.13
2018-09-01T09:45:25.081Z,98657.72
2018-09-01T09:47:03.261Z,98489.56
2018-09-01T09:48:40.519Z,98641.05
2018-09-01T09:50:16.588Z,98757.72
2018-09-01T09:51:53.522Z,98860.68
2018-09-01T09:53:34.739Z,98899.47
2018-09-01T09:55:12.839Z,98851.83
2018-09-01T09:56:48.372Z,98822.98
2018-09-01T09:58:23.774Z,98689.34
2018-09-01T10:00:06.146Z,98494.72
2018-09-01T10:01:46.308Z,98564.68
2018-09-01T10:03:21.532Z,98612.23
2018-09-01T10:04:59.067Z,98635.16
2018-09-01T10:06:34.924Z,98576.18
2018-09-01T10:08:10.156Z,98487.73
2018-09-01T10:09:46.277Z,98595.58
2018-09-01T10:11:23.441Z,98682.73
2018-09-01T10:13:00.396Z,98772.19
2018-09-01T10:14:38.418Z,98829.25
2018-09-01T10:16:14.847Z,98732.88
2018-09-01T10:17:53.918Z,98602.91
2018-09-01T10:19:29.715Z,98585.27
2018-09-01T10:21:06.047Z,98652.69
2018-09-01T10:22:41.374Z,98801.77
2018-09-01T10:24:17.573Z,98763.34
2018-09-01T10:25:54.503Z,98585.77
2018-09-01T10:27:33.607Z,98529.37
2018-09-01T10:29:09.896Z,98725.05
2018-09-01T10:30:48.064Z,98731.53
2018-09-01T10:32:25.069Z,98730.18
2018-09-01T10:34:02.785Z,98663.70
2018-09-01T10:35:38.439Z,98584.41
2018-09-01T10:37:18.715Z,98524.36
2018-09-01T10:39:02.403Z,98582.09
2018-09-01T10:40:51.819Z,98565.39
2018-09-01T10:42:28.977Z,98487.49
2018-09-01T10:44:06.894Z,98400.25
2018-09-01T10:45:50.554Z,98441.53
2018-09-01T10:47:31.006Z,98438.47
2018-09-01T10:49:11.277Z,98561.01
2018-09-01T10:50:47.970Z,98715.59
2018-09-01T10:52:23.770Z,98775.00
2018-09-01T10:53:59.145Z,98882.28
2018-09-01T10:55:35.624Z,98960.02
2018-09-01T10:57:11.567Z,98822.73
2018-09-01T10:58:47.117Z,98626.92
2018-09-01T11:00:24.738Z,98700.49
2018-09-01T11:02:00.005Z,98674.86
2018-09-01T11:03:36.161Z,98487.71
2018-09-01T11:05:13.219Z,98460.88
2018-09-01T11:06:49.753Z,98321.78
2018-09-01T11:08:27.141Z,98202.13
2018-09-01T11:10:05.632Z,98177.43
2018-09-01T11:11:49.282Z,98108.97
2018-09-01T11:13:34.496Z,98120.48
2018-09-01T11:15:31.842Z,98290.45
2018-09-01T11:17:10.960Z,98372.70
2018-09-01T11:18:47.766Z,98578.64
2018-09-01T11:20:25.605Z,98728.48
2018-09-01T11:22:01.890Z,98811.92
2018-09-01T11:23:50.679Z,98974.25
2018-09-01T11:25:35.513Z,99039.27
2018-09-01T11:27:10.792Z,98992.30
2018-09-01T11:28:51.088Z,99024.25
2018-09-01T11:30:27.584Z,98989.38
2018-09-01T11:32:03.405Z,98799.06
2018-09-01T11:33:39.306Z,98776.12
2018-09-01T11:35:14.730Z,98615.30
2018-09-01T11:36:52.203Z,98633.69
2018-09-01T11:38:30.141Z,98552.66
2018-09-01T11:40:09.664Z,98491.52
2018-09-01T11:41:53.406Z,98472.88
2018-09-01T11:43:29.948Z,98460.53
2018-09-01T11:45:10.920Z,98520.41
2018-09-01T11:46:48.144Z,98678.69
2018-09-01T11:48:33.252Z,98664.93
2018-09-01T11:50:14.578Z,98757.56
2018-09-01T11:51:51.878Z,98921.68
2018-09-01T11:53:27.803Z,99016.14
2018-09-01T11:55:17.806Z,99064.23
2018-09-01T11:56:53.676Z,99118.31
2018-09-01T12:00:11.639Z,99096.19
2018-09-01T12:01:51.549Z,99062.02
2018-09-01T12:03:28.428Z,99110.69
2018-09-01T12:05:05.003Z,99193.23
2018-09-01T12:06:42.580Z,99251.16
2018-09-01T12:08:18.328Z,99285.73
2018-09-01T12:09:55.703Z,99307.78
2018-09-01T12:11:33.651Z,99323.27
2018-09-01T12:13:13.115Z,99183.13
2018-09-01T12:14:55.583Z,99039.01
2018-09-01T12:16:31.707Z,98992.08
2018-09-01T12:18:11.947Z,98922.31
2018-09-01T12:21:34.450Z,98925.99
2018-09-01T12:23:11.036Z,98960.62
2018-09-01T12:26:16.540Z,99013.21
2018-09-01T12:27:53.300Z,98970.83
2018-09-01T12:29:28.977Z,99087.97
2018-09-01T12:31:08.101Z,99170.61
2018-09-01T12:32:43.759Z,99220.90
2018-09-01T12:34:20.329Z,99273.56
2018-09-01T12:35:57.671Z,99214.25
2018-09-01T12:37:33.684Z,98958.78
2018-09-01T12:39:09.400Z,98828.64
2018-09-01T12:40:45.693Z,98951.77
2018-09-01T12:42:25.533Z,99059.95
2018-09-01T12:46:40.988Z,98955.00
2018-09-01T12:48:16.786Z,99111.56
2018-09-01T12:49:52.694Z,99223.37
2018-09-01T12:51:28.673Z,99162.84
2018-09-01T12:53:05.423Z,99170.84
2018-09-01T12:54:43.171Z,99179.08
2018-09-01T12:56:20.307Z,99154.38
2018-09-01T12:58:04.335Z,99228.91
2018-09-01T12:59:46.346Z,99332.56
2018-09-01T13:01:31.213Z,99384.29
2018-09-01T13:03:07.193Z,99444.50
2018-09-01T13:04:45.374Z,99335.16
2018-09-01T13:06:32.260Z,98986.07
2018-09-01T13:08:13.752Z,98834.91
2018-09-01T13:09:50.843Z,98795.13
2018-09-01T13:11:28.692Z,98797.33
2018-09-01T13:13:06.579Z,98834.75
2018-09-01T13:14:43.393Z,98933.23
2018-09-01T13:16:22.573Z,98952.14
2018-09-01T13:17:59.715Z,98936.19
2018-09-01T13:19:37.305Z,98984.83
2018-09-01T13:21:13.651Z,98937.92
2018-09-01T13:22:50.063Z,98963.96
2018-09-01T13:24:25.811Z,99047.53
2018-09-01T13:26:02.828Z,99074.83
2018-09-01T13:27:40.276Z,99116.00
2018-09-01T13:29:16.482Z,99153.87
2018-09-01T13:30:55.966Z,99064.73
2018-09-01T13:32:32.465Z,98955.11
2018-09-01T13:34:10.421Z,98993.55
2018-09-01T13:35:54.579Z,99093.27
2018-09-01T13:37:34.998Z,99047.91
2018-09-01T13:39:11.154Z,99108.27
2018-09-01T13:40:49.938Z,99216.14
2018-09-01T13:42:27.197Z,99356.46
2018-09-01T13:44:03.552Z,99408.30
2018-09-01T13:45:44.421Z,99432.09
2018-09-01T13:47:21.048Z,99397.59
2018-09-01T13:48:58.512Z,99482.95
2018-09-01T13:50:35.342Z,99485.16
2018-09-01T13:52:12.075Z,99450.20
2018-09-01T13:53:51.369Z,99361.52
2018-09-01T13:55:40.441Z,99274.45
2018-09-01T13:57:19.939Z,99186.37
2018-09-01T13:58:57.224Z,99057.37
2018-09-01T14:00:33.846Z,98875.78
2018-09-01T14:02:10.274Z,98949.44
2018-09-01T14:03:47.054Z,98943.70
2018-09-01T14:05:23.235Z,98933.00
2018-09-01T14:06:59.326Z,98906.09
2018-09-01T14:08:36.398Z,98802.34
2018-09-01T14:10:13.443Z,98674.52
2018-09-01T14:11:53.767Z,98652.05
2018-09-01T14:13:29.302Z,98566.08
2018-09-01T14:15:06.535Z,98639.52
2018-09-01T14:16:44.463Z,98793.04
2018-09-01T14:18:20.640Z,98916.16
2018-09-01T14:19:56.718Z,99033.64
2018-09-01T14:21:33.951Z,99215.77
2018-09-01T14:23:12.676Z,99168.78
2018-09-01T14:24:48.651Z,99041.52
2018-09-01T14:26:24.015Z,98993.46
2018-09-01T14:28:01.349Z,98866.17
2018-09-01T14:29:37.244Z,98802.23
2018-09-01T14:31:14.963Z,98629.22
2018-09-01T14:32:50.477Z,98649.11
2018-09-01T14:34:28.401Z,98754.38
2018-09-01T14:36:05.950Z,98794.61
2018-09-01T14:37:42.355Z,98731.55
2018-09-01T14:39:17.779Z,98784.30
2018-09-01T14:40:55.438Z,98948.34
2018-09-01T14:42:32.424Z,99140.37
2018-09-01T14:44:08.829Z,99156.61
2018-09-01T14:45:45.462Z,98979.09
2018-09-01T14:47:22.008Z,99124.00
2018-09-01T14:48:58.692Z,99234.45
2018-09-01T14:50:34.598Z,99289.76
2018-09-01T14:52:10.254Z,99204.34
2018-09-01T14:53:45.600Z,99242.84
2018-09-01T14:55:22.555Z,99164.58
2018-09-01T14:56:58.546Z,99113.82
2018-09-01T14:58:33.905Z,99062.41
2018-09-01T15:00:11.666Z,99072.98
2018-09-01T15:01:47.547Z,99004.65
2018-09-01T15:03:23.551Z,98876.98
2018-09-01T15:05:01.609Z,98953.30
2018-09-01T15:06:46.639Z,99065.97
2018-09-01T15:08:23.705Z,99040.66
2018-09-01T15:10:04.705Z,99018.05
2018-09-01T15:11:41.965Z,99052.59
2018-09-01T15:13:18.804Z,99161.28
2018-09-01T15:14:55.326Z,99255.05
2018-09-01T15:16:32.482Z,99315.59
2018-09-01T15:18:09.971Z,99529.81
2018-09-01T15:19:45.192Z,99671.65
2018-09-01T15:21:23.294Z,99723.10
2018-09-01T15:22:58.610Z,99666.37
2018-09-01T15:24:33.902Z,99389.38
2018-09-01T15:26:09.456Z,99420.41
2018-09-01T15:27:45.087Z,99400.81
2018-09-01T15:29:20.852Z,99327.56
2018-09-01T15:30:57.965Z,99314.13
2018-09-01T15:32:34.431Z,99237.69
2018-09-01T15:34:10.157Z,99251.38
2018-09-01T15:41:49.289Z,99210.63
2018-09-01T15:43:25.284Z,99278.19
2018-09-01T15:45:03.453Z,99308.61
2018-09-01T15:46:42.231Z,99298.52
2018-09-01T15:48:18.746Z,99300.22
2018-09-01T15:49:55.938Z,99255.55
2018-09-01T15:51:33.462Z,99246.71
2018-09-01T15:53:09.499Z,99269.58
2018-09-01T15:54:47.798Z,99270.59
2018-09-01T15:58:10.239Z,99364.25
2018-09-01T15:59:46.411Z,99358.00
2018-09-01T16:01:23.558Z,99225.77
2018-09-01T16:02:58.972Z,99118.36
2018-09-01T16:04:34.748Z,98888.30
2018-09-01T16:06:11.238Z,98817.05
2018-09-01T16:07:49.054Z,98797.67
2018-09-01T16:09:24.331Z,98748.70
2018-09-01T16:10:59.662Z,98854.86
2018-09-01T16:12:36.066Z,98900.79
2018-09-01T16:14:13.923Z,98783.56
2018-09-01T16:15:50.850Z,98668.82
2018-09-01T16:17:26.164Z,98664.92
2018-09-01T16:19:02.562Z,98777.16
2018-09-01T16:20:38.912Z,98896.24
2018-09-01T16:23:46.978Z,98991.23
2018-09-01T16:25:27.386Z,98962.52
2018-09-01T16:27:07.527Z,98790.91
2018-09-01T16:28:43.865Z,98721.21
2018-09-01T16:30:19.447Z,98676.69
2018-09-01T16:31:56.323Z,98779.73
2018-09-01T16:33:32.530Z,98778.02
2018-09-01T16:35:08.937Z,98812.52
2018-09-01T16:36:45.232Z,98850.81
2018-09-01T16:38:21.407Z,98838.91
2018-09-01T16:40:01.119Z,98871.06
2018-09-01T16:41:38.068Z,99007.98
2018-09-01T16:43:18.293Z,99024.20
2018-09-01T16:44:57.261Z,99018.30
2018-09-01T16:46:39.288Z,99049.02
2018-09-01T16:48:17.845Z,99136.44
2018-09-01T16:49:57.998Z,99005.27
2018-09-01T16:51:36.264Z,99134.59
2018-09-01T16:54:58.299Z,99221.22
2018-09-01T16:56:36.623Z,99243.52
2018-09-01T16:58:12.750Z,99135.45
2018-09-01T16:59:48.382Z,98913.23
2018-09-01T17:01:25.229Z,98836.44
2018-09-01T17:03:03.087Z,98964.84
2018-09-01T17:04:40.185Z,98982.89
2018-09-01T17:06:18.268Z,98755.20
2018-09-01T17:07:53.848Z,98763.16
2018-09-01T17:09:31.231Z,98718.62
2018-09-01T17:11:09.778Z,98741.93
2018-09-01T17:12:49.596Z,98752.98
2018-09-01T17:14:28.131Z,98849.59
2018-09-01T17:16:03.870Z,98963.86
2018-09-01T17:17:39.882Z,98910.53
2018-09-01T17:19:19.630Z,98908.20
2018-09-01T17:20:55.095Z,98912.63
2018-09-01T17:22:32.556Z,99027.01
2018-09-01T17:24:08.805Z,98955.86
2018-09-01T17:25:44.491Z,98910.90
2018-09-01T17:27:21.279Z,98826.48
2018-09-01T17:28:57.232Z,98810.17
2018-09-01T17:30:34.487Z,98816.44
2018-09-01T17:32:12.318Z,98725.13
2018-09-01T17:33:50.321Z,98760.83
2018-09-01T17:35:27.229Z,98773.61
2018-09-01T17:37:08.446Z,98761.69
2018-09-01T17:38:46.828Z,98871.92
2018-09-01T17:40:23.611Z,98942.58
2018-09-01T17:42:05.458Z,99064.37
2018-09-01T17:43:42.026Z,99049.02
2018-09-01T17:45:26.729Z,99026.52
2018-09-01T17:47:04.439Z,99061.79
2018-09-01T17:48:47.959Z,99005.64
2018-09-01T17:50:47.335Z,98962.84
2018-09-01T17:52:22.978Z,98871.34
2018-09-01T17:53:59.911Z,98888.68
2018-09-01T17:55:39.408Z,98920.35
2018-09-01T17:57:15.847Z,98984.61
2018-09-01T17:58:53.634Z,98936.19
2018-09-01T18:00:31.101Z,98765.84
2018-09-01T18:02:09.682Z,98684.38
2018-09-01T18:03:45.959Z,98661.45
2018-09-01T18:05:22.839Z,98720.32
2018-09-01T18:07:11.705Z,98787.97
2018-09-01T18:08:50.306Z,98897.38
2018-09-01T18:10:43.477Z,98904.73
2018-09-01T18:12:24.678Z,98812.12
2018-09-01T18:14:02.000Z,98712.83
2018-09-01T18:15:59.968Z,98805.02
2018-09-01T18:17:53.708Z,98741.55
2018-09-01T18:19:39.330Z,98774.20
2018-09-01T18:21:17.691Z,98701.43
2018-09-01T18:22:55.467Z,98677.63
2018-09-01T18:24:31.879Z,98737.48
2018-09-01T18:26:12.387Z,98713.69
2018-09-01T18:27:50.476Z,98772.84
2018-09-01T18:29:27.348Z,98801.45
2018-09-01T18:31:04.490Z,98823.06
2018-09-01T18:32:52.860Z,98866.80
2018-09-01T18:34:33.228Z,98893.33
2018-09-01T18:36:12.309Z,98927.59
2018-09-01T18:37:49.657Z,98908.80
2018-09-01T18:39:26.200Z,99022.69
2018-09-01T18:41:05.964Z,99039.77
2018-09-01T18:42:46.890Z,99125.61
2018-09-01T18:44:25.945Z,99199.19
2018-09-01T18:46:05.617Z,99169.69
2018-09-01T18:47:44.718Z,99053.81
2018-09-01T18:49:24.102Z,98946.02
2018-09-01T18:51:04.182Z,98869.02
2018-09-01T18:52:42.641Z,98885.22
2018-09-01T18:54:20.691Z,98925.38
2018-09-01T18:56:15.573Z,98969.97
2018-09-01T18:58:08.639Z,98961.52
2018-09-01T18:59:53.496Z,98919.11
2018-09-01T19:01:34.468Z,98919.59
2018-09-01T19:03:13.619Z,99003.05
2018-09-01T19:04:52.028Z,98999.10
2018-09-01T19:06:30.650Z,98972.19
2018-09-01T19:08:09.662Z,98916.18
2018-09-01T19:09:50.670Z,98958.44
2018-09-01T19:11:36.108Z,99019.00
2018-09-01T19:13:20.489Z,99034.02
2018-09-01T19:15:07.286Z,99023.32
2018-09-01T19:16:50.919Z,98990.13
2018-09-01T19:18:43.370Z,99000.34
2018-09-01T19:20:37.954Z,98962.88
2018-09-01T19:22:33.467Z,98958.44
2018-09-01T19:24:23.443Z,98981.79
2018-09-01T19:26:09.970Z,98940.39
2018-09-01T19:27:54.447Z,98913.48